Main page
METAR-TAF:

METAR-TAF

Airports :

Kermanshah Airport

Kermanshah, Iran

latitude: 34-16N, longitude: 047-07E, elevation: 1320 m

Current weather observation

The report was made 21 minutes ago, at 01:00 UTC
Wind 4 kt from the South
Temperature 4°C
Humidity 75%
Pressure 1022 hPa
Visibility 10 km or more
Few clouds at a height of 4500 ft
Broken clouds at a height of 10000 ft

METAR: OICC 150100Z 19004KT 9999 FEW045 BKN100 04/M00 Q1022 A3019

Time: 04:51 (01:21 UTC)


TAF: missing

Weather observations and forecasts of more than 4000 airports (METAR and TAF reports).

The available stations are represented by yellow and red dots on the map.

Hover mouse over dot to see the name of the station.

Then click to see weather observations and forecasts.

To change the map : click on the green buttons with a black cross to zoom in, on the green button with a dash to zoom out, or on the green arrows for adjacent maps.


METAR-TAF: